Decoded Metar for LFRV (VANNES in FRANCE) (IATA:VNE) | Meteo·Mobile Aviation Weather
aviador You're here:

LFRV Decoded Metar

VANNES in FRANCE
Report Time2018-08-21 07:30:00
UTC Time2018-08-21 07:51:24
Flight Rules vfr VFR
Wind010° at 07 kt
W.Decomp.*RWY 04: 6.1 kt HW 3.4 kt LCW
RWY 08: 2.5 kt HW 6.5 kt LCW
W.Rank010° ranks 8
Current wind is below 010° avg. (7.3)
Visibility9999 m
Phenomena:N/A
Clouds:Scattered 001 Hf
Broken 031 Hf
Expected CloudBase > 400 ft AGL from Temp-Dew spread
Ceiling3,100 ft
Temp18°C (ISA +4)
Dew Point17°C (94% RH)
AAT17.9°C
QNH1021 hPa
Density Alt889 ft
Elevation445 ft
Report Wrong Elevation
Raw Report
METAR LFRV 210730Z AUTO 01007KT 9999 SCT001 BKN031 18/17 Q1021=

Extra information for LFRV:More info

Metar Taf Metar & Taf Last 4 Metars F.Rules Stats Wind Profile Meteogram Temp Stats Airport Information Weather charts Add Link Nearby VenuesMetar ALERT Operation Metar Decoded Social comments